sensor_id;sensor_type;location;lat;lon;timestamp;pressure;altitude;pressure_sealevel;temperature;humidity
67840;BME280;54636;51.684;5.142;2023-03-21T00:00:22;101715.44;;;9.20;100.00
67840;BME280;54636;51.684;5.142;2023-03-21T00:02:48;101689.81;;;9.12;100.00
67840;BME280;54636;51.684;5.142;2023-03-21T00:05:13;101710.63;;;9.24;100.00
67840;BME280;54636;51.684;5.142;2023-03-21T00:07:38;101689.69;;;9.15;100.00
67840;BME280;54636;51.684;5.142;2023-03-21T00:10:05;101689.25;;;9.26;100.00
67840;BME280;54636;51.684;5.142;2023-03-21T00:12:31;101668.47;;;9.05;100.00
67840;BME280;54636;51.684;5.142;2023-03-21T00:14:57;101696.19;;;9.27;100.00
67840;BME280;54636;51.684;5.142;2023-03-21T00:17:29;101693.03;;;9.38;100.00
67840;BME280;54636;51.684;5.142;2023-03-21T00:19:59;101697.09;;;9.33;100.00
67840;BME280;54636;51.684;5.142;2023-03-21T00:22:26;101687.16;;;9.30;100.00
67840;BME280;54636;51.684;5.142;2023-03-21T00:24:55;101688.22;;;9.33;100.00
67840;BME280;54636;51.684;5.142;2023-03-21T00:27:20;101685.66;;;9.29;100.00
67840;BME280;54636;51.684;5.142;2023-03-21T00:29:47;101686.09;;;9.28;100.00
67840;BME280;54636;51.684;5.142;2023-03-21T00:32:14;101687.16;;;9.30;100.00
67840;BME280;54636;51.684;5.142;2023-03-21T00:34:41;101678.28;;;9.39;100.00
67840;BME280;54636;51.684;5.142;2023-03-21T00:37:07;101666.50;;;9.23;100.00
67840;BME280;54636;51.684;5.142;2023-03-21T00:39:33;101637.75;;;8.99;100.00
67840;BME280;54636;51.684;5.142;2023-03-21T00:41:59;101669.38;;;9.20;100.00
67840;BME280;54636;51.684;5.142;2023-03-21T00:44:25;101675.09;;;9.31;100.00
67840;BME280;54636;51.684;5.142;2023-03-21T00:46:50;101642.41;;;9.07;100.00
67840;BME280;54636;51.684;5.142;2023-03-21T00:49:16;101649.03;;;9.15;100.00
67840;BME280;54636;51.684;5.142;2023-03-21T00:51:42;101654.16;;;9.22;100.00
67840;BME280;54636;51.684;5.142;2023-03-21T00:54:10;101649.03;;;9.15;100.00
67840;BME280;54636;51.684;5.142;2023-03-21T00:56:36;101659.88;;;9.24;100.00
67840;BME280;54636;51.684;5.142;2023-03-21T00:59:02;101651.44;;;9.22;100.00
67840;BME280;54636;51.684;5.142;2023-03-21T01:01:27;101645.72;;;9.11;100.00
67840;BME280;54636;51.684;5.142;2023-03-21T01:03:57;101656.72;;;9.17;100.00
67840;BME280;54636;51.684;5.142;2023-03-21T01:06:35;101647.69;;;9.20;100.00
67840;BME280;54636;51.684;5.142;2023-03-21T01:09:04;101640.44;;;9.17;100.00
67840;BME280;54636;51.684;5.142;2023-03-21T01:11:29;101638.34;;;9.12;100.00
67840;BME280;54636;51.684;5.142;2023-03-21T01:13:56;101636.81;;;9.11;100.00
67840;BME280;54636;51.684;5.142;2023-03-21T01:16:21;101636.38;;;9.12;100.00
67840;BME280;54636;51.684;5.142;2023-03-21T01:18:47;101622.25;;;9.08;100.00
67840;BME280;54636;51.684;5.142;2023-03-21T01:21:13;101626.47;;;9.09;100.00
67840;BME280;54636;51.684;5.142;2023-03-21T01:23:40;101623.44;;;9.07;100.00
67840;BME280;54636;51.684;5.142;2023-03-21T01:26:07;101621.50;;;9.08;100.00
67840;BME280;54636;51.684;5.142;2023-03-21T01:28:35;101626.16;;;9.07;100.00
67840;BME280;54636;51.684;5.142;2023-03-21T01:31:02;101621.19;;;9.06;100.00
67840;BME280;54636;51.684;5.142;2023-03-21T01:33:29;101612.31;;;9.05;100.00
67840;BME280;54636;51.684;5.142;2023-03-21T01:35:55;101617.28;;;9.07;100.00
67840;BME280;54636;51.684;5.142;2023-03-21T01:38:21;101611.84;;;9.07;100.00
67840;BME280;54636;51.684;5.142;2023-03-21T01:40:47;101596.63;;;9.00;100.00
67840;BME280;54636;51.684;5.142;2023-03-21T01:43:29;101609.16;;;9.07;100.00
67840;BME280;54636;51.684;5.142;2023-03-21T01:49:06;101605.25;;;9.08;100.00
67840;BME280;54636;51.684;5.142;2023-03-21T01:51:37;101592.44;;;8.99;100.00
67840;BME280;54636;51.684;5.142;2023-03-21T01:54:04;101604.94;;;9.06;100.00
67840;BME280;54636;51.684;5.142;2023-03-21T01:56:34;101580.38;;;8.91;100.00
67840;BME280;54636;51.684;5.142;2023-03-21T01:59:07;101595.28;;;9.05;100.00
67840;BME280;54636;51.684;5.142;2023-03-21T02:01:33;101592.59;;;9.05;100.00
67840;BME280;54636;51.684;5.142;2023-03-21T02:04:03;101588.81;;;9.02;100.00
67840;BME280;54636;51.684;5.142;2023-03-21T02:06:58;101577.06;;;8.96;100.00
67840;BME280;54636;51.684;5.142;2023-03-21T02:09:23;101584.44;;;9.05;100.00
67840;BME280;54636;51.684;5.142;2023-03-21T02:11:50;101568.50;;;8.98;100.00
67840;BME280;54636;51.684;5.142;2023-03-21T02:14:17;101577.38;;;9.07;100.00
67840;BME280;54636;51.684;5.142;2023-03-21T02:17:04;101577.38;;;9.07;100.00
67840;BME280;54636;51.684;5.142;2023-03-21T02:19:59;101566.53;;;8.98;100.00
67840;BME280;54636;51.684;5.142;2023-03-21T02:28:05;101566.22;;;8.96;100.00
67840;BME280;54636;51.684;5.142;2023-03-21T02:33:29;101565.63;;;9.01;100.00
67840;BME280;54636;51.684;5.142;2023-03-21T02:39:27;101543.66;;;8.90;100.00
67840;BME280;54636;51.684;5.142;2023-03-21T02:42:10;101546.66;;;8.92;100.00
67840;BME280;54636;51.684;5.142;2023-03-21T02:44:47;101551.34;;;9.01;100.00
67840;BME280;54636;51.684;5.142;2023-03-21T02:47:21;101548.47;;;8.95;100.00
67840;BME280;54636;51.684;5.142;2023-03-21T02:50:05;101536.41;;;8.87;100.00
67840;BME280;54636;51.684;5.142;2023-03-21T02:52:35;101529.63;;;8.82;100.00
67840;BME280;54636;51.684;5.142;2023-03-21T02:55:02;101533.88;;;8.93;100.00
67840;BME280;54636;51.684;5.142;2023-03-21T02:57:29;101540.78;;;8.94;100.00
67840;BME280;54636;51.684;5.142;2023-03-21T02:59:55;101531.16;;;8.93;100.00
67840;BME280;54636;51.684;5.142;2023-03-21T03:02:25;101529.03;;;8.87;100.00
67840;BME280;54636;51.684;5.142;2023-03-21T03:04:51;101510.81;;;8.79;100.00
67840;BME280;54636;51.684;5.142;2023-03-21T03:10:21;101523.94;;;8.89;100.00
67840;BME280;54636;51.684;5.142;2023-03-21T03:26:14;101515.34;;;8.82;100.00
67840;BME280;54636;51.684;5.142;2023-03-21T03:28:45;101506.16;;;8.79;100.00
67840;BME280;54636;51.684;5.142;2023-03-21T03:31:15;101521.66;;;8.88;100.00
67840;BME280;54636;51.684;5.142;2023-03-21T03:33:48;101520.00;;;8.90;100.00
67840;BME280;54636;51.684;5.142;2023-03-21T03:36:17;101474.84;;;8.60;100.00
67840;BME280;54636;51.684;5.142;2023-03-21T03:38:46;101503.91;;;8.78;100.00
67840;BME280;54636;51.684;5.142;2023-03-21T03:41:26;101507.66;;;8.80;100.00
67840;BME280;54636;51.684;5.142;2023-03-21T03:43:55;101507.06;;;8.76;100.00
67840;BME280;54636;51.684;5.142;2023-03-21T03:46:29;101511.72;;;8.85;100.00
67840;BME280;54636;51.684;5.142;2023-03-21T03:49:03;101484.19;;;8.68;100.00
67840;BME280;54636;51.684;5.142;2023-03-21T03:51:38;101498.34;;;8.81;100.00
67840;BME280;54636;51.684;5.142;2023-03-21T03:54:11;101511.28;;;8.86;100.00
67840;BME280;54636;51.684;5.142;2023-03-21T03:56:38;101504.19;;;8.80;100.00
67840;BME280;54636;51.684;5.142;2023-03-21T03:59:04;101502.41;;;8.86;100.00
67840;BME280;54636;51.684;5.142;2023-03-21T04:01:32;101494.13;;;8.80;100.00
67840;BME280;54636;51.684;5.142;2023-03-21T04:03:59;101485.84;;;8.75;100.00
67840;BME280;54636;51.684;5.142;2023-03-21T04:06:25;101488.84;;;8.77;100.00
67840;BME280;54636;51.684;5.142;2023-03-21T04:08:53;101494.44;;;8.82;100.00
67840;BME280;54636;51.684;5.142;2023-03-21T04:11:20;101477.13;;;8.71;100.00
67840;BME280;54636;51.684;5.142;2023-03-21T04:13:46;101469.44;;;8.69;100.00
67840;BME280;54636;51.684;5.142;2023-03-21T04:16:11;101473.66;;;8.70;100.00
67840;BME280;54636;51.684;5.142;2023-03-21T04:18:37;101482.53;;;8.80;100.00
67840;BME280;54636;51.684;5.142;2023-03-21T04:21:07;101472.75;;;8.73;100.00
67840;BME280;54636;51.684;5.142;2023-03-21T04:23:32;101457.25;;;8.65;100.00
67840;BME280;54636;51.684;5.142;2023-03-21T04:25:59;101493.22;;;8.83;100.00
67840;BME280;54636;51.684;5.142;2023-03-21T04:28:25;101479.06;;;8.79;100.00
67840;BME280;54636;51.684;5.142;2023-03-21T04:30:50;101467.34;;;8.73;100.00
67840;BME280;54636;51.684;5.142;2023-03-21T04:33:15;101468.84;;;8.83;100.00
67840;BME280;54636;51.684;5.142;2023-03-21T04:35:41;101468.09;;;8.83;100.00
67840;BME280;54636;51.684;5.142;2023-03-21T04:38:06;101471.84;;;8.85;100.00
67840;BME280;54636;51.684;5.142;2023-03-21T04:40:32;101455.59;;;8.76;100.00
67840;BME280;54636;51.684;5.142;2023-03-21T04:42:57;101462.97;;;8.85;100.00
67840;BME280;54636;51.684;5.142;2023-03-21T04:45:25;101472.59;;;8.86;100.00
67840;BME280;54636;51.684;5.142;2023-03-21T04:47:51;101454.41;;;8.77;100.00
67840;BME280;54636;51.684;5.142;2023-03-21T04:50:16;101462.81;;;8.79;100.00
67840;BME280;54636;51.684;5.142;2023-03-21T04:52:41;101467.94;;;8.86;100.00
67840;BME280;54636;51.684;5.142;2023-03-21T04:55:07;101459.34;;;8.88;100.00
67840;BME280;54636;51.684;5.142;2023-03-21T04:57:35;101440.41;;;8.79;100.00
67840;BME280;54636;51.684;5.142;2023-03-21T05:00:03;101448.53;;;8.88;100.00
67840;BME280;54636;51.684;5.142;2023-03-21T05:02:33;101428.50;;;8.76;100.00
67840;BME280;54636;51.684;5.142;2023-03-21T05:04:58;101445.81;;;8.88;100.00
67840;BME280;54636;51.684;5.142;2023-03-21T05:07:24;101434.06;;;8.82;100.00
67840;BME280;54636;51.684;5.142;2023-03-21T05:09:51;101445.97;;;8.84;100.00
67840;BME280;54636;51.684;5.142;2023-03-21T05:12:16;101419.78;;;8.72;100.00
67840;BME280;54636;51.684;5.142;2023-03-21T05:14:43;101433.31;;;8.72;100.00
67840;BME280;54636;51.684;5.142;2023-03-21T05:17:09;101442.34;;;8.78;100.00
67840;BME280;54636;51.684;5.142;2023-03-21T05:19:34;101444.91;;;8.82;100.00
67840;BME280;54636;51.684;5.142;2023-03-21T05:22:05;101449.13;;;8.83;100.00
67840;BME280;54636;51.684;5.142;2023-03-21T05:24:32;101451.09;;;8.82;100.00
67840;BME280;54636;51.684;5.142;2023-03-21T05:26:58;101420.38;;;8.67;100.00
67840;BME280;54636;51.684;5.142;2023-03-21T05:29:28;101440.09;;;8.86;100.00
67840;BME280;54636;51.684;5.142;2023-03-21T05:31:53;101429.25;;;8.77;100.00
67840;BME280;54636;51.684;5.142;2023-03-21T05:34:19;101418.44;;;8.68;100.00
67840;BME280;54636;51.684;5.142;2023-03-21T05:36:45;101418.72;;;8.70;100.00
67840;BME280;54636;51.684;5.142;2023-03-21T05:39:11;101439.34;;;8.85;100.00
67840;BME280;54636;51.684;5.142;2023-03-21T05:41:36;101438.91;;;8.87;100.00
67840;BME280;54636;51.684;5.142;2023-03-21T05:44:02;101419.63;;;8.76;100.00
67840;BME280;54636;51.684;5.142;2023-03-21T05:46:27;101439.66;;;8.87;100.00
67840;BME280;54636;51.684;5.142;2023-03-21T05:48:52;101426.56;;;8.77;100.00
67840;BME280;54636;51.684;5.142;2023-03-21T05:51:18;101442.66;;;8.89;100.00
67840;BME280;54636;51.684;5.142;2023-03-21T05:53:43;101432.13;;;8.91;100.00
67840;BME280;54636;51.684;5.142;2023-03-21T05:56:09;101413.31;;;8.79;100.00
67840;BME280;54636;51.684;5.142;2023-03-21T05:58:34;101436.78;;;8.91;100.00
67840;BME280;54636;51.684;5.142;2023-03-21T06:00:59;101437.22;;;8.89;100.00
67840;BME280;54636;51.684;5.142;2023-03-21T06:03:25;101445.50;;;8.95;100.00
67840;BME280;54636;51.684;5.142;2023-03-21T06:05:50;101420.09;;;8.83;100.00
67840;BME280;54636;51.684;5.142;2023-03-21T06:08:16;101425.34;;;8.87;100.00
67840;BME280;54636;51.684;5.142;2023-03-21T06:10:41;101437.38;;;8.95;100.00
67840;BME280;54636;51.684;5.142;2023-03-21T06:13:07;101440.84;;;8.96;100.00
67840;BME280;54636;51.684;5.142;2023-03-21T06:15:32;101440.09;;;8.95;100.00
67840;BME280;54636;51.684;5.142;2023-03-21T06:17:58;101418.72;;;8.88;100.00
67840;BME280;54636;51.684;5.142;2023-03-21T06:20:23;101420.22;;;8.89;100.00
67840;BME280;54636;51.684;5.142;2023-03-21T06:22:48;101411.50;;;8.85;100.00
67840;BME280;54636;51.684;5.142;2023-03-21T06:25:14;101435.88;;;9.03;100.00
67840;BME280;54636;51.684;5.142;2023-03-21T06:27:39;101427.28;;;8.96;100.00
67840;BME280;54636;51.684;5.142;2023-03-21T06:30:05;101424.88;;;8.98;100.00
67840;BME280;54636;51.684;5.142;2023-03-21T06:32:31;101427.44;;;9.01;100.00
67840;BME280;54636;51.684;5.142;2023-03-21T06:34:56;101437.78;;;9.12;100.00
67840;BME280;54636;51.684;5.142;2023-03-21T06:37:22;101422.47;;;9.00;100.00
67840;BME280;54636;51.684;5.142;2023-03-21T06:39:47;101444.69;;;9.22;100.00
67840;BME280;54636;51.684;5.142;2023-03-21T06:42:13;101443.78;;;9.25;100.00
67840;BME280;54636;51.684;5.142;2023-03-21T06:44:38;101438.81;;;9.23;100.00
67840;BME280;54636;51.684;5.142;2023-03-21T06:47:05;101430.53;;;9.18;100.00
67840;BME280;54636;51.684;5.142;2023-03-21T06:49:31;101435.97;;;9.18;100.00
67840;BME280;54636;51.684;5.142;2023-03-21T06:51:56;101454.31;;;9.32;100.00
67840;BME280;54636;51.684;5.142;2023-03-21T06:54:22;101433.72;;;9.16;100.00
67840;BME280;54636;51.684;5.142;2023-03-21T06:56:47;101456.28;;;9.32;100.00
67840;BME280;54636;51.684;5.142;2023-03-21T06:59:13;101457.91;;;9.38;100.00
67840;BME280;54636;51.684;5.142;2023-03-21T07:01:38;101456.13;;;9.35;100.00
67840;BME280;54636;51.684;5.142;2023-03-21T07:04:04;101460.78;;;9.35;100.00
67840;BME280;54636;51.684;5.142;2023-03-21T07:06:31;101447.69;;;9.24;100.00
67840;BME280;54636;51.684;5.142;2023-03-21T07:08:57;101469.22;;;9.37;100.00
67840;BME280;54636;51.684;5.142;2023-03-21T07:11:23;101447.38;;;9.31;100.00
67840;BME280;54636;51.684;5.142;2023-03-21T07:13:48;101452.34;;;9.33;100.00
67840;BME280;54636;51.684;5.142;2023-03-21T07:16:15;101452.78;;;9.40;100.00
67840;BME280;54636;51.684;5.142;2023-03-21T07:18:41;101452.50;;;9.38;100.00
67840;BME280;54636;51.684;5.142;2023-03-21T07:21:07;101446.63;;;9.40;100.00
67840;BME280;54636;51.684;5.142;2023-03-21T07:23:32;101452.75;;;9.58;100.00
67840;BME280;54636;51.684;5.142;2023-03-21T07:25:59;101449.13;;;9.52;100.00
67840;BME280;54636;51.684;5.142;2023-03-21T07:28:25;101439.50;;;9.51;100.00
67840;BME280;54636;51.684;5.142;2023-03-21T07:30:54;101442.19;;;9.61;100.00
67840;BME280;54636;51.684;5.142;2023-03-21T07:33:20;101453.47;;;9.68;100.00
67840;BME280;54636;51.684;5.142;2023-03-21T07:35:48;101442.78;;;9.65;100.00
67840;BME280;54636;51.684;5.142;2023-03-21T07:38:14;101444.28;;;9.66;100.00
67840;BME280;54636;51.684;5.142;2023-03-21T07:40:41;101431.66;;;9.53;100.00
67840;BME280;54636;51.684;5.142;2023-03-21T07:43:06;101436.31;;;9.62;100.00
67840;BME280;54636;51.684;5.142;2023-03-21T07:45:32;101426.69;;;9.52;100.00
67840;BME280;54636;51.684;5.142;2023-03-21T07:47:57;101410.88;;;9.50;100.00
67840;BME280;54636;51.684;5.142;2023-03-21T07:50:22;101423.78;;;9.65;100.00
67840;BME280;54636;51.684;5.142;2023-03-21T07:52:48;101418.94;;;9.69;100.00
67840;BME280;54636;51.684;5.142;2023-03-21T07:55:13;101422.25;;;9.73;100.00
67840;BME280;54636;51.684;5.142;2023-03-21T07:57:41;101399.09;;;9.63;100.00
67840;BME280;54636;51.684;5.142;2023-03-21T08:00:07;101424.44;;;9.83;100.00
67840;BME280;54636;51.684;5.142;2023-03-21T08:02:33;101429.69;;;9.87;100.00
67840;BME280;54636;51.684;5.142;2023-03-21T08:04:58;101421.72;;;9.83;100.00
67840;BME280;54636;51.684;5.142;2023-03-21T08:07:24;101431.31;;;9.94;100.00
67840;BME280;54636;51.684;5.142;2023-03-21T08:09:51;101416.41;;;9.89;100.00
67840;BME280;54636;51.684;5.142;2023-03-21T08:12:16;101431.72;;;10.01;100.00
67840;BME280;54636;51.684;5.142;2023-03-21T08:14:42;101424.75;;;10.09;100.00
67840;BME280;54636;51.684;5.142;2023-03-21T08:17:07;101416.59;;;10.09;100.00
67840;BME280;54636;51.684;5.142;2023-03-21T08:19:34;101417.31;;;10.19;100.00
67840;BME280;54636;51.684;5.142;2023-03-21T08:21:59;101409.88;;;10.29;100.00
67840;BME280;54636;51.684;5.142;2023-03-21T08:24:26;101409.06;;;10.37;100.00
67840;BME280;54636;51.684;5.142;2023-03-21T08:26:52;101405.69;;;10.42;100.00
67840;BME280;54636;51.684;5.142;2023-03-21T08:29:18;101405.59;;;10.51;100.00
67840;BME280;54636;51.684;5.142;2023-03-21T08:31:43;101395.78;;;10.54;100.00
67840;BME280;54636;51.684;5.142;2023-03-21T08:34:09;101374.88;;;10.45;100.00
67840;BME280;54636;51.684;5.142;2023-03-21T08:36:35;101400.50;;;10.68;100.00
67840;BME280;54636;51.684;5.142;2023-03-21T08:39:02;101398.53;;;10.69;100.00
67840;BME280;54636;51.684;5.142;2023-03-21T08:41:33;101375.19;;;10.62;100.00
67840;BME280;54636;51.684;5.142;2023-03-21T08:43:59;101375.56;;;10.70;100.00
67840;BME280;54636;51.684;5.142;2023-03-21T08:46:25;101390.94;;;10.73;100.00
67840;BME280;54636;51.684;5.142;2023-03-21T08:48:51;101341.47;;;10.54;100.00
67840;BME280;54636;51.684;5.142;2023-03-21T08:51:16;101388.72;;;10.86;100.00
67840;BME280;54636;51.684;5.142;2023-03-21T08:53:42;101379.53;;;10.98;100.00
67840;BME280;54636;51.684;5.142;2023-03-21T08:56:09;101375.22;;;10.92;100.00
67840;BME280;54636;51.684;5.142;2023-03-21T08:58:35;101364.81;;;10.90;100.00
67840;BME280;54636;51.684;5.142;2023-03-21T09:01:01;101378.78;;;10.98;100.00
67840;BME280;54636;51.684;5.142;2023-03-21T09:03:27;101377.19;;;10.91;100.00
67840;BME280;54636;51.684;5.142;2023-03-21T09:05:54;101381.03;;;10.84;100.00
67840;BME280;54636;51.684;5.142;2023-03-21T09:08:20;101378.78;;;10.83;100.00
67840;BME280;54636;51.684;5.142;2023-03-21T09:10:54;101366.78;;;10.75;100.00
67840;BME280;54636;51.684;5.142;2023-03-21T09:13:20;101378.31;;;10.84;100.00
67840;BME280;54636;51.684;5.142;2023-03-21T09:15:46;101375.22;;;10.92;100.00
67840;BME280;54636;51.684;5.142;2023-03-21T09:18:12;101370.06;;;10.94;100.00
67840;BME280;54636;51.684;5.142;2023-03-21T09:20:38;101363.50;;;11.00;100.00
67840;BME280;54636;51.684;5.142;2023-03-21T09:23:04;101355.53;;;10.97;100.00
67840;BME280;54636;51.684;5.142;2023-03-21T09:25:30;101365.91;;;11.13;100.00
67840;BME280;54636;51.684;5.142;2023-03-21T09:27:57;101366.66;;;11.13;100.00
67840;BME280;54636;51.684;5.142;2023-03-21T09:30:23;101353.44;;;11.21;100.00
67840;BME280;54636;51.684;5.142;2023-03-21T09:32:49;101355.47;;;11.26;100.00
67840;BME280;54636;51.684;5.142;2023-03-21T09:35:16;101362.22;;;11.31;100.00
67840;BME280;54636;51.684;5.142;2023-03-21T09:37:43;101353.50;;;11.27;100.00
67840;BME280;54636;51.684;5.142;2023-03-21T09:40:16;101358.75;;;11.30;100.00
67840;BME280;54636;51.684;5.142;2023-03-21T09:45:18;101348.78;;;11.42;100.00
67840;BME280;54636;51.684;5.142;2023-03-21T09:47:48;101348.97;;;11.53;100.00
67840;BME280;54636;51.684;5.142;2023-03-21T09:50:32;101349.88;;;11.65;100.00
67840;BME280;54636;51.684;5.142;2023-03-21T09:53:07;101347.19;;;11.70;100.00
67840;BME280;54636;51.684;5.142;2023-03-21T09:55:36;101349.13;;;11.84;100.00
67840;BME280;54636;51.684;5.142;2023-03-21T09:58:07;101355.47;;;11.96;100.00
67840;BME280;54636;51.684;5.142;2023-03-21T10:00:39;101356.56;;;12.04;100.00
67840;BME280;54636;51.684;5.142;2023-03-21T10:03:20;101353.97;;;12.15;100.00
67840;BME280;54636;51.684;5.142;2023-03-21T10:05:50;101344.38;;;12.20;100.00
67840;BME280;54636;51.684;5.142;2023-03-21T10:08:37;101342.28;;;12.35;100.00
67840;BME280;54636;51.684;5.142;2023-03-21T10:11:16;101341.19;;;12.47;100.00
67840;BME280;54636;51.684;5.142;2023-03-21T10:13:51;101332.09;;;12.56;100.00
67840;BME280;54636;51.684;5.142;2023-03-21T10:16:27;101334.00;;;12.76;100.00
67840;BME280;54636;51.684;5.142;2023-03-21T10:18:54;101334.81;;;12.82;99.89
67840;BME280;54636;51.684;5.142;2023-03-21T10:21:27;101323.75;;;12.91;98.17
67840;BME280;54636;51.684;5.142;2023-03-21T10:23:55;101317.41;;;12.74;98.42
67840;BME280;54636;51.684;5.142;2023-03-21T10:26:23;101318.25;;;12.60;99.02
67840;BME280;54636;51.684;5.142;2023-03-21T10:28:53;101321.31;;;12.67;96.48
67840;BME280;54636;51.684;5.142;2023-03-21T10:31:22;101326.81;;;12.73;97.75
67840;BME280;54636;51.684;5.142;2023-03-21T10:33:50;101336.97;;;12.72;100.00
67840;BME280;54636;51.684;5.142;2023-03-21T10:36:20;101332.00;;;12.71;97.24
67840;BME280;54636;51.684;5.142;2023-03-21T10:38:52;101323.75;;;12.65;99.50
67840;BME280;54636;51.684;5.142;2023-03-21T10:41:19;101320.50;;;12.61;97.99
67840;BME280;54636;51.684;5.142;2023-03-21T10:43:46;101313.97;;;12.53;98.26
67840;BME280;54636;51.684;5.142;2023-03-21T10:46:17;101321.84;;;12.71;96.65
67840;BME280;54636;51.684;5.142;2023-03-21T10:48:51;101337.31;;;12.85;97.30
67840;BME280;54636;51.684;5.142;2023-03-21T10:51:37;101315.69;;;12.76;98.45
67840;BME280;54636;51.684;5.142;2023-03-21T10:54:06;101331.00;;;13.05;97.52
67840;BME280;54636;51.684;5.142;2023-03-21T10:56:37;101326.88;;;13.15;95.04
67840;BME280;54636;51.684;5.142;2023-03-21T10:59:05;101326.22;;;13.26;95.13
67840;BME280;54636;51.684;5.142;2023-03-21T11:01:36;101318.53;;;13.25;94.30
67840;BME280;54636;51.684;5.142;2023-03-21T11:04:24;101291.84;;;13.40;94.56
67840;BME280;54636;51.684;5.142;2023-03-21T11:06:55;101300.31;;;13.47;91.99
67840;BME280;54636;51.684;5.142;2023-03-21T11:09:25;101310.22;;;13.45;91.26
67840;BME280;54636;51.684;5.142;2023-03-21T11:12:07;101319.63;;;13.38;92.20
67840;BME280;54636;51.684;5.142;2023-03-21T11:19:50;101324.25;;;13.27;90.40
67840;BME280;54636;51.684;5.142;2023-03-21T11:22:18;101313.81;;;13.25;91.72
67840;BME280;54636;51.684;5.142;2023-03-21T11:24:49;101310.16;;;13.34;90.69
67840;BME280;54636;51.684;5.142;2023-03-21T11:27:15;101314.75;;;13.54;90.35
67840;BME280;54636;51.684;5.142;2023-03-21T11:29:49;101311.56;;;13.66;89.00
67840;BME280;54636;51.684;5.142;2023-03-21T11:32:30;101298.41;;;13.70;88.53
67840;BME280;54636;51.684;5.142;2023-03-21T11:35:13;101289.47;;;13.59;88.81
67840;BME280;54636;51.684;5.142;2023-03-21T11:37:45;101297.13;;;13.55;89.83
67840;BME280;54636;51.684;5.142;2023-03-21T11:42:46;101306.94;;;13.35;88.86
67840;BME280;54636;51.684;5.142;2023-03-21T11:45:24;101299.75;;;13.38;88.48
67840;BME280;54636;51.684;5.142;2023-03-21T11:47:54;101306.91;;;13.30;88.46
67840;BME280;54636;51.684;5.142;2023-03-21T11:50:41;101285.63;;;13.39;89.73
67840;BME280;54636;51.684;5.142;2023-03-21T11:53:32;101296.19;;;13.63;88.67
67840;BME280;54636;51.684;5.142;2023-03-21T12:01:54;101299.50;;;13.90;85.82
67840;BME280;54636;51.684;5.142;2023-03-21T12:25:21;101263.84;;;14.49;79.27
67840;BME280;54636;51.684;5.142;2023-03-21T12:28:03;101262.88;;;14.46;80.25
67840;BME280;54636;51.684;5.142;2023-03-21T12:30:50;101246.66;;;14.32;79.71
67840;BME280;54636;51.684;5.142;2023-03-21T12:38:51;101241.44;;;14.06;75.26
67840;BME280;54636;51.684;5.142;2023-03-21T12:43:57;101258.88;;;14.25;74.13
67840;BME280;54636;51.684;5.142;2023-03-21T12:51:42;101255.66;;;14.77;72.52
67840;BME280;54636;51.684;5.142;2023-03-21T12:54:43;101235.28;;;14.83;72.10
67840;BME280;54636;51.684;5.142;2023-03-21T12:57:40;101231.97;;;15.02;70.71
67840;BME280;54636;51.684;5.142;2023-03-21T13:02:55;101236.25;;;14.80;70.65
67840;BME280;54636;51.684;5.142;2023-03-21T13:05:39;101233.53;;;14.86;70.74
67840;BME280;54636;51.684;5.142;2023-03-21T13:08:23;101228.06;;;14.80;71.11
67840;BME280;54636;51.684;5.142;2023-03-21T13:10:50;101223.84;;;14.68;68.96
67840;BME280;54636;51.684;5.142;2023-03-21T13:13:21;101224.09;;;14.54;69.78
67840;BME280;54636;51.684;5.142;2023-03-21T13:16:05;101219.88;;;14.58;71.95
67840;BME280;54636;51.684;5.142;2023-03-21T13:19:03;101219.59;;;14.78;70.67
67840;BME280;54636;51.684;5.142;2023-03-21T13:24:22;101221.13;;;14.57;69.64
67840;BME280;54636;51.684;5.142;2023-03-21T13:26:51;101213.41;;;14.61;69.56
67840;BME280;54636;51.684;5.142;2023-03-21T13:31:49;101203.47;;;14.69;68.54
67840;BME280;54636;51.684;5.142;2023-03-21T13:34:14;101194.50;;;14.74;69.41
67840;BME280;54636;51.684;5.142;2023-03-21T13:36:44;101203.94;;;14.85;69.98
67840;BME280;54636;51.684;5.142;2023-03-21T13:39:19;101187.53;;;14.90;70.87
67840;BME280;54636;51.684;5.142;2023-03-21T13:41:47;101176.53;;;15.01;69.30
67840;BME280;54636;51.684;5.142;2023-03-21T13:44:31;101185.13;;;15.28;69.57
67840;BME280;54636;51.684;5.142;2023-03-21T13:47:02;101195.78;;;15.42;68.45
67840;BME280;54636;51.684;5.142;2023-03-21T13:49:35;101191.56;;;15.36;68.36
67840;BME280;54636;51.684;5.142;2023-03-21T13:52:25;101197.78;;;15.36;69.11
67840;BME280;54636;51.684;5.142;2023-03-21T13:54:56;101196.84;;;15.23;68.84
67840;BME280;54636;51.684;5.142;2023-03-21T13:57:34;101202.81;;;15.21;67.78
67840;BME280;54636;51.684;5.142;2023-03-21T14:00:26;101192.63;;;15.22;69.45
67840;BME280;54636;51.684;5.142;2023-03-21T14:03:07;101185.69;;;15.09;69.74
67840;BME280;54636;51.684;5.142;2023-03-21T14:05:34;101169.59;;;14.95;68.80
67840;BME280;54636;51.684;5.142;2023-03-21T14:08:04;101171.25;;;15.14;69.85
67840;BME280;54636;51.684;5.142;2023-03-21T14:10:42;101177.69;;;15.23;69.95
67840;BME280;54636;51.684;5.142;2023-03-21T14:13:14;101174.47;;;15.19;69.04
67840;BME280;54636;51.684;5.142;2023-03-21T14:16:05;101177.69;;;15.23;69.81
67840;BME280;54636;51.684;5.142;2023-03-21T14:18:46;101177.47;;;15.21;68.98
67840;BME280;54636;51.684;5.142;2023-03-21T14:21:21;101177.66;;;15.34;68.33
67840;BME280;54636;51.684;5.142;2023-03-21T14:23:54;101162.69;;;15.40;69.10
67840;BME280;54636;51.684;5.142;2023-03-21T14:26:20;101146.72;;;15.50;68.19
67840;BME280;54636;51.684;5.142;2023-03-21T14:28:48;101148.22;;;15.57;69.51